createdAt,value
2019-04-25T00:00:36.612Z,4.00
2019-04-25T00:03:08.839Z,3.90
2019-04-25T00:05:41.142Z,3.90
2019-04-25T00:08:12.406Z,4.00
2019-04-25T00:10:43.841Z,4.00
2019-04-25T00:13:14.972Z,3.90
2019-04-25T00:15:46.826Z,3.80
2019-04-25T00:18:17.520Z,3.70
2019-04-25T00:20:52.316Z,3.70
2019-04-25T00:23:22.790Z,3.70
2019-04-25T00:26:15.264Z,3.70
2019-04-25T00:28:46.693Z,3.60
2019-04-25T00:31:17.189Z,3.40
2019-04-25T00:33:47.636Z,3.40
2019-04-25T00:36:18.082Z,3.30
2019-04-25T00:38:49.268Z,3.30
2019-04-25T00:41:21.352Z,3.30
2019-04-25T00:43:52.639Z,3.30
2019-04-25T00:46:23.189Z,3.30
2019-04-25T00:48:53.705Z,3.20
2019-04-25T00:51:24.051Z,3.20
2019-04-25T00:53:54.838Z,3.20
2019-04-25T00:56:25.481Z,3.20
2019-04-25T00:59:05.150Z,3.10
2019-04-25T01:01:57.254Z,3.10
2019-04-25T01:04:29.572Z,3.10
2019-04-25T01:07:01.469Z,3.00
2019-04-25T01:09:32.341Z,3.00
2019-04-25T01:12:04.095Z,3.00
2019-04-25T01:14:34.739Z,3.10
2019-04-25T01:17:06.300Z,3.10
2019-04-25T01:19:36.934Z,3.10
2019-04-25T01:22:07.353Z,3.10
2019-04-25T01:24:37.711Z,3.10
2019-04-25T01:27:08.237Z,3.10
2019-04-25T01:29:38.645Z,3.00
2019-04-25T01:32:10.846Z,3.00
2019-04-25T01:34:48.473Z,3.00
2019-04-25T01:37:49.967Z,2.90
2019-04-25T01:40:43.946Z,2.90
2019-04-25T01:43:31.081Z,2.60
2019-04-25T01:46:03.410Z,2.60
2019-04-25T01:48:33.959Z,2.70
2019-04-25T01:51:04.555Z,2.60
2019-04-25T01:53:35.598Z,2.60
2019-04-25T01:56:07.834Z,2.70
2019-04-25T01:58:38.395Z,2.70
2019-04-25T02:01:08.861Z,2.70
2019-04-25T02:03:40.486Z,2.70
2019-04-25T02:06:10.894Z,2.70
2019-04-25T02:08:41.225Z,2.60
2019-04-25T02:11:26.397Z,2.70
2019-04-25T02:13:56.964Z,2.60
2019-04-25T02:16:27.522Z,2.60
2019-04-25T02:18:58.146Z,2.60
2019-04-25T02:21:28.545Z,2.60
2019-04-25T02:23:58.941Z,2.50
2019-04-25T02:26:43.800Z,2.50
2019-04-25T02:32:11.489Z,2.50
2019-04-25T02:34:41.920Z,2.40
2019-04-25T02:37:14.575Z,2.50
2019-04-25T02:39:44.861Z,2.40
2019-04-25T02:42:16.935Z,2.40
2019-04-25T02:44:57.860Z,2.40
2019-04-25T02:47:46.300Z,2.40
2019-04-25T02:50:41.514Z,2.50
2019-04-25T02:53:30.224Z,2.50
2019-04-25T02:56:01.789Z,2.30
2019-04-25T02:58:34.287Z,2.30
2019-04-25T03:01:16.268Z,2.20
2019-04-25T03:03:38.831Z,2.20
2019-04-25T03:06:09.756Z,2.10
2019-04-25T03:08:40.685Z,2.20
2019-04-25T03:11:11.045Z,2.10
2019-04-25T03:13:43.966Z,2.10
2019-04-25T03:16:14.111Z,2.10
2019-04-25T03:18:55.812Z,2.10
2019-04-25T03:21:29.941Z,2.00
2019-04-25T03:24:01.432Z,2.10
2019-04-25T03:26:38.552Z,2.20
2019-04-25T03:29:05.251Z,2.30
2019-04-25T03:31:36.356Z,2.30
2019-04-25T03:34:13.754Z,2.40
2019-04-25T03:36:40.620Z,2.30
2019-04-25T03:39:11.039Z,2.30
2019-04-25T03:41:43.820Z,2.20
2019-04-25T03:44:15.240Z,2.10
2019-04-25T03:46:45.567Z,2.10
2019-04-25T03:49:15.975Z,2.20
2019-04-25T03:51:46.369Z,2.20
2019-04-25T03:54:16.852Z,2.30
2019-04-25T03:56:53.671Z,2.30
2019-04-25T03:59:19.264Z,2.30
2019-04-25T04:01:49.592Z,2.30
2019-04-25T04:04:20.042Z,2.30
2019-04-25T04:07:34.990Z,2.10
2019-04-25T04:10:06.588Z,2.10
2019-04-25T04:12:37.074Z,2.00
2019-04-25T04:15:08.309Z,2.00
2019-04-25T04:17:45.217Z,2.10
2019-04-25T04:20:53.511Z,2.10
2019-04-25T04:23:48.621Z,2.20
2019-04-25T04:26:19.057Z,2.20
2019-04-25T04:28:50.198Z,2.00
2019-04-25T04:31:20.507Z,1.90
2019-04-25T04:33:50.894Z,1.80
2019-04-25T04:36:21.607Z,1.70
2019-04-25T04:38:52.117Z,1.70
2019-04-25T04:41:23.943Z,1.60
2019-04-25T04:43:54.606Z,1.70
2019-04-25T04:46:25.046Z,1.60
2019-04-25T04:48:55.422Z,1.50
2019-04-25T04:51:25.850Z,1.50
2019-04-25T04:53:56.286Z,1.60
2019-04-25T04:56:26.642Z,1.80
2019-04-25T04:58:57.030Z,1.80
2019-04-25T05:01:29.036Z,1.90
2019-04-25T05:04:35.722Z,2.10
2019-04-25T05:07:15.420Z,2.40
2019-04-25T05:09:46.065Z,2.90
2019-04-25T05:12:17.442Z,3.50
2019-04-25T05:14:47.961Z,4.00
2019-04-25T05:17:18.485Z,4.40
2019-04-25T05:19:49.032Z,4.90
2019-04-25T05:22:20.354Z,5.40
2019-04-25T05:24:50.800Z,5.70
2019-04-25T05:27:37.168Z,5.90
2019-04-25T05:29:54.193Z,6.40
2019-04-25T05:32:25.200Z,6.90
2019-04-25T05:34:55.732Z,7.30
2019-04-25T05:37:26.449Z,7.50
2019-04-25T05:39:58.710Z,7.90
2019-04-25T05:42:51.547Z,8.00
2019-04-25T05:45:24.679Z,8.00
2019-04-25T05:47:55.460Z,7.90
2019-04-25T05:50:26.298Z,8.40
2019-04-25T05:56:28.289Z,8.80
2019-04-25T06:08:28.811Z,9.20
2019-04-25T06:11:14.896Z,9.40
2019-04-25T06:13:50.812Z,9.30
2019-04-25T06:16:27.025Z,9.90
2019-04-25T06:19:13.955Z,9.70
2019-04-25T06:21:43.493Z,9.90
2019-04-25T06:24:48.557Z,10.00
2019-04-25T06:27:28.501Z,10.00
2019-04-25T06:30:09.232Z,9.80
2019-04-25T06:32:39.573Z,9.80
2019-04-25T06:35:10.176Z,10.20
2019-04-25T06:37:41.244Z,10.20
2019-04-25T06:40:13.736Z,10.60
2019-04-25T06:42:46.686Z,11.00
2019-04-25T06:45:34.482Z,11.80
2019-04-25T06:48:11.725Z,12.50
2019-04-25T06:50:43.708Z,12.60
2019-04-25T06:53:14.357Z,12.20
2019-04-25T06:55:45.613Z,12.10
2019-04-25T06:58:16.077Z,12.60
2019-04-25T07:00:58.001Z,12.80
2019-04-25T07:03:18.550Z,13.50
2019-04-25T07:05:48.961Z,13.60
2019-04-25T07:08:19.402Z,13.60
2019-04-25T07:10:49.846Z,13.40
2019-04-25T07:13:20.281Z,13.50
2019-04-25T07:15:50.846Z,13.80
2019-04-25T07:18:21.186Z,14.10
2019-04-25T07:20:53.267Z,14.30
2019-04-25T07:23:25.451Z,14.80
2019-04-25T07:26:08.386Z,15.00
2019-04-25T07:29:09.690Z,14.70
2019-04-25T07:32:07.846Z,15.20
2019-04-25T07:34:38.539Z,16.30
2019-04-25T07:37:08.961Z,16.50
2019-04-25T07:39:42.107Z,16.10
2019-04-25T07:42:14.040Z,16.20
2019-04-25T07:44:51.692Z,16.90
2019-04-25T07:47:17.927Z,16.40
2019-04-25T07:49:48.264Z,16.40
2019-04-25T07:52:18.715Z,16.60
2019-04-25T07:54:49.072Z,16.60
2019-04-25T07:57:19.493Z,17.20
2019-04-25T07:59:52.124Z,17.80
2019-04-25T08:02:23.359Z,18.60
2019-04-25T08:04:54.147Z,18.50
2019-04-25T08:07:27.326Z,19.20
2019-04-25T08:09:58.346Z,19.20
2019-04-25T08:12:30.545Z,18.90
2019-04-25T08:15:10.607Z,19.20
2019-04-25T08:18:01.758Z,19.20
2019-04-25T08:20:34.324Z,19.50
2019-04-25T08:23:06.321Z,19.30
2019-04-25T08:25:39.216Z,19.20
2019-04-25T08:28:08.843Z,19.60
2019-04-25T08:30:39.184Z,19.70
2019-04-25T08:33:09.578Z,19.80
2019-04-25T08:35:40.089Z,19.70
2019-04-25T08:38:10.909Z,20.00
2019-04-25T08:40:42.114Z,19.90
2019-04-25T08:43:14.648Z,19.80
2019-04-25T08:45:48.082Z,20.10
2019-04-25T08:51:56.070Z,20.00
2019-04-25T08:54:41.536Z,20.20
2019-04-25T08:57:18.689Z,20.50
2019-04-25T08:59:57.063Z,20.70
2019-04-25T09:02:55.777Z,21.00
2019-04-25T09:05:45.988Z,21.50
2019-04-25T09:08:14.846Z,21.90
2019-04-25T09:10:45.163Z,21.50
2019-04-25T09:13:16.877Z,21.90
2019-04-25T09:15:54.023Z,21.50
2019-04-25T09:18:24.751Z,20.80
2019-04-25T09:20:55.266Z,20.80
2019-04-25T09:23:25.806Z,20.80
2019-04-25T09:25:56.538Z,21.30
2019-04-25T09:28:27.071Z,21.70
2019-04-25T09:30:57.671Z,21.90
2019-04-25T09:33:28.423Z,21.30
2019-04-25T09:35:58.900Z,21.00
2019-04-25T09:38:29.422Z,20.80
2019-04-25T09:40:59.970Z,20.80
2019-04-25T09:43:30.457Z,20.40
2019-04-25T09:46:18.137Z,20.70
2019-04-25T09:48:59.200Z,21.30
2019-04-25T09:51:33.647Z,21.50
2019-04-25T09:54:23.782Z,20.90
2019-04-25T09:56:57.520Z,20.90
2019-04-25T09:59:30.117Z,21.30
2019-04-25T10:02:00.256Z,21.40
2019-04-25T10:04:30.694Z,21.50
2019-04-25T10:07:01.115Z,21.20
2019-04-25T10:09:31.458Z,21.60
2019-04-25T10:12:01.813Z,21.70
2019-04-25T10:15:08.587Z,21.30
2019-04-25T10:17:39.261Z,21.00
2019-04-25T10:20:11.234Z,20.60
2019-04-25T10:22:42.708Z,20.70
2019-04-25T10:25:14.406Z,20.90
2019-04-25T10:27:48.222Z,21.20
2019-04-25T10:30:21.806Z,21.80
2019-04-25T10:32:50.903Z,21.30
2019-04-25T10:35:21.592Z,21.10
2019-04-25T10:37:53.758Z,20.90
2019-04-25T10:40:26.099Z,20.70
2019-04-25T10:42:56.538Z,20.70
2019-04-25T10:45:27.014Z,21.00
2019-04-25T10:47:57.484Z,21.00
2019-04-25T10:50:27.884Z,21.10
2019-04-25T10:52:58.242Z,20.90
2019-04-25T10:55:28.647Z,20.90
2019-04-25T10:57:59.277Z,21.20
2019-04-25T11:00:36.447Z,21.20
2019-04-25T11:03:34.951Z,21.50
2019-04-25T11:06:05.818Z,21.10
2019-04-25T11:08:36.182Z,21.60
2019-04-25T11:11:06.711Z,21.60
2019-04-25T11:13:38.159Z,22.00
2019-04-25T11:16:08.651Z,22.10
2019-04-25T11:18:39.042Z,22.00
2019-04-25T11:21:09.472Z,22.50
2019-04-25T11:23:41.275Z,22.50
2019-04-25T11:26:13.737Z,22.20
2019-04-25T11:28:45.273Z,22.00
2019-04-25T11:31:39.615Z,22.00
2019-04-25T11:34:10.883Z,21.60
2019-04-25T11:37:38.369Z,21.50
2019-04-25T11:40:23.257Z,21.40
2019-04-25T11:42:54.577Z,21.50
2019-04-25T11:45:25.127Z,21.00
2019-04-25T11:47:55.669Z,21.30
2019-04-25T11:54:05.696Z,21.30
2019-04-25T11:56:36.159Z,21.00
2019-04-25T11:59:06.583Z,20.90
2019-04-25T12:01:37.248Z,21.20
2019-04-25T12:04:07.562Z,21.20
2019-04-25T12:06:37.907Z,21.00
2019-04-25T12:09:08.369Z,21.00
2019-04-25T12:11:40.428Z,21.10
2019-04-25T12:14:10.964Z,21.10
2019-04-25T12:16:41.735Z,21.30
2019-04-25T12:19:13.845Z,21.30
2019-04-25T12:21:44.713Z,21.30
2019-04-25T12:24:15.341Z,21.30
2019-04-25T12:26:47.405Z,21.10
2019-04-25T12:29:17.771Z,20.70
2019-04-25T12:31:49.197Z,20.60
2019-04-25T12:34:19.899Z,20.80
2019-04-25T12:36:50.285Z,20.70
2019-04-25T12:39:20.750Z,20.80
2019-04-25T12:41:51.942Z,20.60
2019-04-25T12:44:54.815Z,20.70
2019-04-25T12:47:27.003Z,20.70
2019-04-25T12:49:57.926Z,20.50
2019-04-25T12:52:28.559Z,20.60
2019-04-25T12:54:59.903Z,20.80
2019-04-25T12:57:30.348Z,21.20
2019-04-25T13:00:00.781Z,21.40
2019-04-25T13:02:34.630Z,21.50
2019-04-25T13:05:05.726Z,21.60
2019-04-25T13:07:38.708Z,21.50
2019-04-25T13:10:10.010Z,21.60
2019-04-25T13:12:40.558Z,21.60
2019-04-25T13:15:11.186Z,21.70
2019-04-25T13:17:41.599Z,21.60
2019-04-25T13:23:38.743Z,21.20
2019-04-25T13:26:09.220Z,21.20
2019-04-25T13:29:01.389Z,21.40
2019-04-25T13:31:53.595Z,21.40
2019-04-25T13:34:36.025Z,21.40
2019-04-25T13:37:01.011Z,21.50
2019-04-25T13:39:31.479Z,21.30
2019-04-25T13:42:02.408Z,21.20
2019-04-25T13:44:34.273Z,21.40
2019-04-25T13:47:09.476Z,21.40
2019-04-25T13:49:39.839Z,21.50
2019-04-25T13:52:10.988Z,21.60
2019-04-25T13:54:41.335Z,21.50
2019-04-25T13:57:13.219Z,21.60
2019-04-25T13:59:45.809Z,21.60
2019-04-25T14:02:16.459Z,21.50
2019-04-25T14:04:47.069Z,21.70
2019-04-25T14:07:17.717Z,21.30
2019-04-25T14:09:48.174Z,21.30
2019-04-25T14:15:27.500Z,20.80
2019-04-25T14:18:26.558Z,20.70
2019-04-25T14:21:03.490Z,20.80
2019-04-25T14:23:35.467Z,20.80
2019-04-25T14:26:39.329Z,20.90
2019-04-25T14:29:09.564Z,21.00
2019-04-25T14:31:45.826Z,20.70
2019-04-25T14:34:13.292Z,20.40
2019-04-25T14:36:44.273Z,20.60
2019-04-25T14:39:17.303Z,20.30
2019-04-25T14:41:47.989Z,20.30
2019-04-25T14:44:18.400Z,20.40
2019-04-25T14:46:48.765Z,20.50
2019-04-25T14:49:19.228Z,20.20
2019-04-25T14:51:49.593Z,20.10
2019-04-25T14:54:26.730Z,20.20
2019-04-25T14:57:03.748Z,20.30
2019-04-25T15:08:20.835Z,20.10
2019-04-25T15:10:51.244Z,20.00
2019-04-25T15:13:21.854Z,20.00
2019-04-25T15:15:52.633Z,20.10
2019-04-25T15:18:23.522Z,20.20
2019-04-25T15:20:54.240Z,20.40
2019-04-25T15:23:25.428Z,20.40
2019-04-25T15:25:56.208Z,20.60
2019-04-25T15:28:27.516Z,20.70
2019-04-25T15:30:58.000Z,20.40
2019-04-25T15:33:28.529Z,20.30
2019-04-25T15:36:06.285Z,20.30
2019-04-25T15:38:42.700Z,20.40
2019-04-25T15:41:32.209Z,20.50
2019-04-25T15:44:40.789Z,20.40
2019-04-25T15:47:15.075Z,20.50
2019-04-25T15:49:45.637Z,20.30
2019-04-25T15:52:15.959Z,20.10
2019-04-25T15:54:46.412Z,20.10
2019-04-25T15:57:16.951Z,20.20
2019-04-25T15:59:47.454Z,20.00
2019-04-25T16:02:18.037Z,20.00
2019-04-25T16:04:48.455Z,20.10
2019-04-25T16:07:19.032Z,20.10
2019-04-25T16:09:49.963Z,20.00
2019-04-25T16:12:22.221Z,20.00
2019-04-25T16:14:52.739Z,19.90
2019-04-25T16:17:23.253Z,19.70
2019-04-25T16:19:53.895Z,19.70
2019-04-25T16:22:24.418Z,19.60
2019-04-25T16:24:54.953Z,19.50
2019-04-25T16:27:25.580Z,19.50
2019-04-25T16:30:10.584Z,19.30
2019-04-25T16:32:41.380Z,19.30
2019-04-25T16:35:12.045Z,19.20
2019-04-25T16:37:44.889Z,19.20
2019-04-25T16:40:15.433Z,19.10
2019-04-25T16:42:46.153Z,18.80
2019-04-25T16:45:16.692Z,18.70
2019-04-25T16:47:47.134Z,18.70
2019-04-25T16:50:18.783Z,18.50
2019-04-25T16:52:49.215Z,17.90
2019-04-25T16:55:20.863Z,17.50
2019-04-25T16:57:51.400Z,17.00
2019-04-25T17:00:40.640Z,16.80
2019-04-25T17:06:38.480Z,16.70
2019-04-25T17:09:09.113Z,16.70
2019-04-25T17:11:41.730Z,16.60
2019-04-25T17:14:35.353Z,16.40
2019-04-25T17:17:17.082Z,16.20
2019-04-25T17:20:04.933Z,15.80
2019-04-25T17:22:35.388Z,15.70
2019-04-25T17:25:05.945Z,15.40
2019-04-25T17:27:37.779Z,15.30
2019-04-25T17:30:08.834Z,15.30
2019-04-25T17:32:53.519Z,15.00
2019-04-25T17:35:38.662Z,14.90
2019-04-25T17:38:19.507Z,14.90
2019-04-25T17:40:50.059Z,14.70
2019-04-25T17:43:20.509Z,14.70
2019-04-25T17:45:50.938Z,14.60
2019-04-25T17:48:21.358Z,14.50
2019-04-25T17:50:51.763Z,14.50
2019-04-25T17:53:22.230Z,14.40
2019-04-25T17:55:53.693Z,14.30
2019-04-25T17:58:24.162Z,14.30
2019-04-25T18:00:54.646Z,14.20
2019-04-25T18:03:25.290Z,14.20
2019-04-25T18:05:55.781Z,14.00
2019-04-25T18:11:38.698Z,13.90
2019-04-25T18:14:09.070Z,13.70
2019-04-25T18:16:43.175Z,13.60
2019-04-25T18:19:36.365Z,13.30
2019-04-25T18:22:25.956Z,13.20
2019-04-25T18:25:10.331Z,13.20
2019-04-25T18:28:05.436Z,12.90
2019-04-25T18:30:36.952Z,12.90
2019-04-25T18:33:28.847Z,12.70
2019-04-25T18:36:10.965Z,12.60
2019-04-25T18:39:06.169Z,12.60
2019-04-25T18:41:42.147Z,12.40
2019-04-25T18:44:12.681Z,12.30
2019-04-25T18:46:44.674Z,12.20
2019-04-25T18:49:15.154Z,11.90
2019-04-25T18:51:56.708Z,11.90
2019-04-25T18:54:28.871Z,11.70
2019-04-25T18:57:03.923Z,11.70
2019-04-25T18:59:59.656Z,11.50
2019-04-25T19:03:04.389Z,11.40
2019-04-25T19:05:56.726Z,11.30
2019-04-25T19:08:27.234Z,11.30
2019-04-25T19:10:57.740Z,11.20
2019-04-25T19:13:28.274Z,11.10
2019-04-25T19:15:58.825Z,11.20
2019-04-25T19:18:31.785Z,11.10
2019-04-25T19:21:02.654Z,11.00
2019-04-25T19:23:33.186Z,11.00
2019-04-25T19:26:03.721Z,10.90
2019-04-25T19:28:34.301Z,10.90
2019-04-25T19:31:04.907Z,10.80
2019-04-25T19:33:36.332Z,10.80
2019-04-25T19:36:06.815Z,10.90
2019-04-25T19:38:37.331Z,10.80
2019-04-25T19:41:21.852Z,10.80
2019-04-25T19:43:55.999Z,10.70
2019-04-25T19:46:43.704Z,10.70
2019-04-25T19:49:14.292Z,10.70
2019-04-25T19:51:45.148Z,10.80
2019-04-25T19:57:43.827Z,10.60
2019-04-25T20:00:15.580Z,10.40
2019-04-25T20:02:54.829Z,10.30
2019-04-25T20:05:41.907Z,10.30
2019-04-25T20:08:23.684Z,10.30
2019-04-25T20:10:58.431Z,10.10
2019-04-25T20:13:29.584Z,10.20
2019-04-25T20:16:00.099Z,10.30
2019-04-25T20:18:30.812Z,10.30
2019-04-25T20:21:01.258Z,10.10
2019-04-25T20:23:32.936Z,10.00
2019-04-25T20:26:04.403Z,10.00
2019-04-25T20:28:35.300Z,9.80
2019-04-25T20:31:06.384Z,9.70
2019-04-25T20:33:37.314Z,9.70
2019-04-25T20:38:41.800Z,9.50
2019-04-25T20:41:13.028Z,9.50
2019-04-25T20:43:44.830Z,9.50
2019-04-25T20:46:22.923Z,9.50
2019-04-25T20:48:56.612Z,9.00
2019-04-25T20:51:27.679Z,9.00
2019-04-25T20:53:59.680Z,8.90
2019-04-25T20:56:30.630Z,8.90
2019-04-25T20:59:01.739Z,8.80
2019-04-25T21:01:33.205Z,8.70
2019-04-25T21:04:13.037Z,8.50
2019-04-25T21:06:38.941Z,8.60
2019-04-25T21:09:12.659Z,8.60
2019-04-25T21:11:45.494Z,8.50
2019-04-25T21:14:31.809Z,8.60
2019-04-25T21:17:10.585Z,8.60
2019-04-25T21:19:43.789Z,8.50
2019-04-25T21:22:14.485Z,8.40
2019-04-25T21:24:46.830Z,8.40
2019-04-25T21:27:17.772Z,8.40
2019-04-25T21:29:48.960Z,8.50
2019-04-25T21:32:21.280Z,8.60
2019-04-25T21:34:53.045Z,8.40
2019-04-25T21:37:26.523Z,8.40
2019-04-25T21:40:16.875Z,8.60
2019-04-25T21:42:56.222Z,8.70
2019-04-25T21:45:27.579Z,8.50
2019-04-25T21:47:58.951Z,8.20
2019-04-25T21:50:30.399Z,8.40
2019-04-25T21:53:01.766Z,8.40
2019-04-25T21:55:33.521Z,8.30
2019-04-25T21:58:05.032Z,8.40
2019-04-25T22:00:56.431Z,8.40
2019-04-25T22:03:29.471Z,8.30
2019-04-25T22:06:03.536Z,8.40
2019-04-25T22:08:34.561Z,8.30
2019-04-25T22:11:05.755Z,8.30
2019-04-25T22:13:37.390Z,8.20
2019-04-25T22:16:10.011Z,8.20
2019-04-25T22:18:42.784Z,8.20
2019-04-25T22:21:14.420Z,8.30
2019-04-25T22:23:45.654Z,8.20
2019-04-25T22:26:16.556Z,8.30
2019-04-25T22:28:49.341Z,8.10
2019-04-25T22:31:24.821Z,8.00
2019-04-25T22:34:20.785Z,7.90
2019-04-25T22:36:51.334Z,7.80
2019-04-25T22:39:21.746Z,7.80
2019-04-25T22:41:52.710Z,7.80
2019-04-25T22:44:23.570Z,7.80
2019-04-25T22:46:54.945Z,7.80
2019-04-25T22:49:27.039Z,7.90
2019-04-25T22:51:57.598Z,8.00
2019-04-25T22:54:29.364Z,8.10
2019-04-25T22:57:00.060Z,8.10
2019-04-25T22:59:31.714Z,8.10
2019-04-25T23:02:13.654Z,8.20
2019-04-25T23:05:05.451Z,8.00
2019-04-25T23:07:31.810Z,8.00
2019-04-25T23:10:03.567Z,7.90
2019-04-25T23:12:34.690Z,8.00
2019-04-25T23:15:06.734Z,8.10
2019-04-25T23:17:37.647Z,8.00
2019-04-25T23:20:09.578Z,8.20
2019-04-25T23:22:41.217Z,8.10
2019-04-25T23:25:14.258Z,8.20
2019-04-25T23:27:55.362Z,8.20
2019-04-25T23:30:30.734Z,8.20
2019-04-25T23:33:01.226Z,8.00
2019-04-25T23:35:33.013Z,8.10
2019-04-25T23:38:05.619Z,8.10
2019-04-25T23:40:35.951Z,8.10
2019-04-25T23:43:07.534Z,8.10
2019-04-25T23:45:37.994Z,8.10
2019-04-25T23:48:10.112Z,8.10
2019-04-25T23:50:40.686Z,8.00
2019-04-25T23:53:11.179Z,8.00
2019-04-25T23:55:41.962Z,8.00
2019-04-25T23:58:12.557Z,8.00
